sensor_id;sensor_type;location;lat;lon;timestamp;temperature;humidity
6863;DHT22;3470;48.738;9.616;2023-07-16T18:06:22;25.20;80.10
6863;DHT22;3470;48.738;9.616;2023-07-16T18:08:48;24.80;81.10
6863;DHT22;3470;48.738;9.616;2023-07-16T18:11:13;24.70;81.50
6863;DHT22;3470;48.738;9.616;2023-07-16T18:13:39;24.60;81.50
6863;DHT22;3470;48.738;9.616;2023-07-16T18:16:04;24.50;81.50
6863;DHT22;3470;48.738;9.616;2023-07-16T18:18:30;24.40;81.90
6863;DHT22;3470;48.738;9.616;2023-07-16T18:20:57;24.40;82.50
6863;DHT22;3470;48.738;9.616;2023-07-16T18:23:23;24.30;82.80
6863;DHT22;3470;48.738;9.616;2023-07-16T18:25:48;24.20;83.00
6863;DHT22;3470;48.738;9.616;2023-07-16T18:28:14;24.10;83.30
6863;DHT22;3470;48.738;9.616;2023-07-16T18:30:44;24.00;83.20
6863;DHT22;3470;48.738;9.616;2023-07-16T18:33:10;23.80;83.00
6863;DHT22;3470;48.738;9.616;2023-07-16T18:35:35;23.70;83.10
6863;DHT22;3470;48.738;9.616;2023-07-16T18:38:01;23.60;83.60
6863;DHT22;3470;48.738;9.616;2023-07-16T18:40:26;23.50;83.60
6863;DHT22;3470;48.738;9.616;2023-07-16T18:42:57;23.50;84.40
6863;DHT22;3470;48.738;9.616;2023-07-16T18:45:23;23.40;83.60
6863;DHT22;3470;48.738;9.616;2023-07-16T18:47:49;23.30;83.10
6863;DHT22;3470;48.738;9.616;2023-07-16T18:50:15;23.20;83.20
6863;DHT22;3470;48.738;9.616;2023-07-16T18:52:40;23.20;83.20
6863;DHT22;3470;48.738;9.616;2023-07-16T18:55:06;23.10;83.90
6863;DHT22;3470;48.738;9.616;2023-07-16T18:57:31;23.00;83.60
6863;DHT22;3470;48.738;9.616;2023-07-16T18:59:57;22.80;84.10
6863;DHT22;3470;48.738;9.616;2023-07-16T19:02:23;22.70;84.60
6863;DHT22;3470;48.738;9.616;2023-07-16T19:04:49;22.60;85.20
6863;DHT22;3470;48.738;9.616;2023-07-16T19:07:14;22.40;85.20
6863;DHT22;3470;48.738;9.616;2023-07-16T19:09:40;22.30;85.80
6863;DHT22;3470;48.738;9.616;2023-07-16T19:12:06;22.10;86.40
6863;DHT22;3470;48.738;9.616;2023-07-16T19:14:32;22.00;86.40
6863;DHT22;3470;48.738;9.616;2023-07-16T19:16:58;21.90;87.00
6863;DHT22;3470;48.738;9.616;2023-07-16T19:19:24;21.80;87.50
6863;DHT22;3470;48.738;9.616;2023-07-16T19:21:49;21.60;88.20
6863;DHT22;3470;48.738;9.616;2023-07-16T19:24:15;21.50;87.30
6863;DHT22;3470;48.738;9.616;2023-07-16T19:26:40;21.40;87.40
6863;DHT22;3470;48.738;9.616;2023-07-16T19:29:06;21.20;87.40
6863;DHT22;3470;48.738;9.616;2023-07-16T19:31:31;21.20;87.70
6863;DHT22;3470;48.738;9.616;2023-07-16T19:33:57;21.10;87.90
6863;DHT22;3470;48.738;9.616;2023-07-16T19:36:23;21.00;88.10
6863;DHT22;3470;48.738;9.616;2023-07-16T19:38:48;20.90;89.00
6863;DHT22;3470;48.738;9.616;2023-07-16T19:41:14;20.80;89.30
6863;DHT22;3470;48.738;9.616;2023-07-16T19:43:40;20.70;89.30
6863;DHT22;3470;48.738;9.616;2023-07-16T19:46:06;20.70;89.20
6863;DHT22;3470;48.738;9.616;2023-07-16T19:48:33;20.70;89.30
6863;DHT22;3470;48.738;9.616;2023-07-16T19:50:59;20.60;89.40
6863;DHT22;3470;48.738;9.616;2023-07-16T19:53:24;20.60;89.60
6863;DHT22;3470;48.738;9.616;2023-07-16T19:55:51;20.70;89.90
6863;DHT22;3470;48.738;9.616;2023-07-16T19:58:16;20.60;89.60
6863;DHT22;3470;48.738;9.616;2023-07-16T20:00:42;20.60;89.60
6863;DHT22;3470;48.738;9.616;2023-07-16T20:03:08;20.60;89.60
6863;DHT22;3470;48.738;9.616;2023-07-16T20:05:41;20.60;88.90
6863;DHT22;3470;48.738;9.616;2023-07-16T20:08:11;20.50;89.10
6863;DHT22;3470;48.738;9.616;2023-07-16T20:10:40;20.50;89.70
6863;DHT22;3470;48.738;9.616;2023-07-16T20:13:06;20.40;89.40
6863;DHT22;3470;48.738;9.616;2023-07-16T20:15:32;20.40;89.80
6863;DHT22;3470;48.738;9.616;2023-07-16T20:17:57;20.30;89.90
6863;DHT22;3470;48.738;9.616;2023-07-16T20:20:23;20.30;90.00
6863;DHT22;3470;48.738;9.616;2023-07-16T20:22:49;20.20;89.90
6863;DHT22;3470;48.738;9.616;2023-07-16T20:25:14;20.20;90.30
6863;DHT22;3470;48.738;9.616;2023-07-16T20:27:45;20.10;90.30
